Time;durP1;ratioP1;P1;durP2;ratioP2;P2;SDS_P1;SDS_P2;PMS_P1;PMS_P2;Temp;Humidity;BMP_temperature;BMP_pressure;BME280_temperature;BME280_humidity;BME280_pressure;Samples;Min_cycle;Max_cycle;Signal;HPM_P1;HPM_P2
2023/03/12 00:01:24;;;;;;;3.90;2.20;;;;;;;3.39;55.88;99546.83;109380;1241;70963;-84
2023/03/12 00:03:57;;;;;;;5.10;2.00;;;;;;;3.40;56.57;99556.91;109412;1244;64003;-83
2023/03/12 00:06:26;;;;;;;2.70;1.90;;;;;;;3.33;57.39;99547.69;109459;1244;59293;-81
2023/03/12 00:08:55;;;;;;;3.10;2.00;;;;;;;3.29;57.52;99575.66;109416;1241;59470;-84
2023/03/12 00:11:24;;;;;;;4.30;2.20;;;;;;;3.27;57.71;99557.52;109546;1241;73424;-85
2023/03/12 00:13:56;;;;;;;4.30;2.80;;;;;;;3.21;58.28;99566.83;109534;1241;72565;-85
2023/03/12 00:16:26;;;;;;;4.80;2.70;;;;;;;3.12;58.70;99566.34;109497;1244;60330;-85
2023/03/12 00:18:55;;;;;;;5.50;2.80;;;;;;;3.08;58.75;99568.80;109488;1241;73749;-83
2023/03/12 00:21:24;;;;;;;5.00;2.60;;;;;;;3.01;59.10;99577.86;109494;1245;60901;-82
2023/03/12 00:23:53;;;;;;;6.90;3.80;;;;;;;2.96;59.71;99583.48;109287;1241;59903;-84
2023/03/12 00:26:22;;;;;;;5.70;2.90;;;;;;;2.87;60.18;99593.79;109382;1241;70964;-83
2023/03/12 00:28:51;;;;;;;5.90;3.20;;;;;;;2.77;60.57;99577.16;109299;1247;70745;-82
2023/03/12 00:31:31;;;;;;;6.50;3.40;;;;;;;2.77;60.86;99589.05;109486;1241;69137;-79
2023/03/12 00:34:01;;;;;;;4.20;2.50;;;;;;;2.76;60.94;99608.40;109451;1248;63687;-82
2023/03/12 00:36:32;;;;;;;6.00;3.00;;;;;;;2.79;60.87;99617.66;109526;1246;57510;-82
2023/03/12 00:39:01;;;;;;;3.50;2.50;;;;;;;2.73;60.94;99608.04;109519;1241;61032;-84
2023/03/12 00:41:30;;;;;;;3.90;2.60;;;;;;;2.69;61.14;99609.10;109516;1242;73637;-84
2023/03/12 00:43:59;;;;;;;5.20;2.80;;;;;;;2.75;60.96;99617.52;109650;1241;72990;-83
2023/03/12 00:46:28;;;;;;;3.80;2.80;;;;;;;2.74;60.98;99632.70;109774;1241;70169;-84
2023/03/12 00:48:57;;;;;;;3.50;2.20;;;;;;;2.67;60.85;99638.30;109580;1244;73660;-83
2023/03/12 00:51:26;;;;;;;4.20;2.60;;;;;;;2.71;60.71;99632.20;109662;1245;57174;-85
2023/03/12 00:53:55;;;;;;;6.00;2.70;;;;;;;2.67;60.98;99646.34;109697;1244;57777;-86
2023/03/12 00:56:24;;;;;;;22.40;4.20;;;;;;;2.70;61.15;99648.41;109571;1244;70793;-85
2023/03/12 00:58:53;;;;;;;4.90;2.70;;;;;;;2.68;61.11;99662.93;109630;1244;72202;-85
2023/03/12 01:01:22;;;;;;;2.80;2.20;;;;;;;2.63;61.35;99661.54;109587;1243;60606;-79
2023/03/12 01:03:52;;;;;;;5.30;2.60;;;;;;;2.66;61.56;99672.38;109554;1245;73072;-86
2023/03/12 01:06:21;;;;;;;4.20;3.00;;;;;;;2.63;61.75;99677.70;109702;1244;61202;-84
2023/03/12 01:08:49;;;;;;;4.40;3.00;;;;;;;2.57;61.80;99674.73;109716;1244;60732;-83
2023/03/12 01:11:19;;;;;;;4.20;2.90;;;;;;;2.58;61.95;99678.13;109684;1244;73238;-84
2023/03/12 01:13:48;;;;;;;5.50;3.40;;;;;;;2.59;61.84;99687.21;109689;1244;61948;-84
2023/03/12 01:16:17;;;;;;;3.50;2.30;;;;;;;2.50;61.96;99700.59;109566;1244;59214;-85
2023/03/12 01:18:46;;;;;;;4.10;3.00;;;;;;;2.52;62.06;99692.43;109600;1244;63289;-85
2023/03/12 01:21:15;;;;;;;4.90;3.40;;;;;;;2.48;62.05;99702.76;109674;1244;61058;-84
2023/03/12 01:23:44;;;;;;;4.50;2.90;;;;;;;2.39;62.11;99723.38;109717;1244;60762;-84
2023/03/12 01:26:12;;;;;;;4.30;2.90;;;;;;;2.43;62.27;99718.52;109715;1243;73964;-84
2023/03/12 01:28:41;;;;;;;4.70;3.10;;;;;;;2.37;62.31;99717.30;109625;1244;62316;-85
2023/03/12 01:31:14;;;;;;;4.80;3.10;;;;;;;2.31;62.42;99734.28;109569;1244;59091;-84
2023/03/12 01:33:43;;;;;;;4.30;3.40;;;;;;;2.30;62.11;99739.13;109670;1244;71978;-84
2023/03/12 01:36:22;;;;;;;4.50;2.70;;;;;;;2.30;62.30;99737.95;109528;1245;57632;-84
2023/03/12 01:38:53;;;;;;;4.60;3.30;;;;;;;2.32;62.13;99735.42;109567;1244;60422;-84
2023/03/12 01:41:25;;;;;;;4.00;2.90;;;;;;;2.27;62.43;99745.15;109396;1243;63285;-83
2023/03/12 01:43:54;;;;;;;4.60;3.50;;;;;;;2.26;62.14;99739.34;109502;1243;72225;-85
2023/03/12 01:46:34;;;;;;;4.70;3.00;;;;;;;2.25;62.44;99743.88;109636;1243;69760;-83
2023/03/12 01:49:18;;;;;;;4.30;2.80;;;;;;;2.23;62.30;99756.50;109525;1244;74827;-83
2023/03/12 01:52:11;;;;;;;4.00;2.90;;;;;;;2.24;62.42;99761.27;109523;1245;59720;-84
2023/03/12 01:54:52;;;;;;;5.30;3.00;;;;;;;2.20;62.74;99756.82;109678;1244;61434;-83
2023/03/12 01:57:47;;;;;;;4.50;3.00;;;;;;;2.14;63.07;99763.52;109554;1244;73406;-84
2023/03/12 02:00:24;;;;;;;6.60;3.20;;;;;;;2.15;63.01;99767.27;109475;1243;72749;-80
2023/03/12 02:02:58;;;;;;;5.20;2.90;;;;;;;2.15;62.51;99767.75;109459;1244;67843;-82
2023/03/12 02:05:44;;;;;;;5.80;3.30;;;;;;;2.03;62.70;99748.63;109437;1247;71221;-82
2023/03/12 02:08:15;;;;;;;7.10;3.60;;;;;;;2.08;62.53;99798.34;109480;1243;59702;-83
2023/03/12 02:10:45;;;;;;;5.90;3.20;;;;;;;1.95;62.69;99794.58;109463;1244;60723;-81
2023/03/12 02:13:15;;;;;;;6.00;4.00;;;;;;;1.89;62.84;99788.55;109411;1243;63413;-82
2023/03/12 02:15:45;;;;;;;5.90;3.80;;;;;;;1.76;63.23;99799.31;109514;1244;71231;-83
2023/03/12 02:18:18;;;;;;;4.80;3.20;;;;;;;1.73;63.23;99806.52;109499;1244;70952;-82
2023/03/12 02:20:56;;;;;;;;;;;;;;;1.70;63.20;99807.34;109549;1244;71483;-82
2023/03/12 02:23:46;;;;;;;4.40;3.30;;;;;;;1.59;63.43;99806.16;109645;1245;60697;-85
2023/03/12 02:26:17;;;;;;;5.90;3.40;;;;;;;1.62;63.23;99816.35;109464;1243;58806;-84
2023/03/12 02:28:49;;;;;;;6.50;3.90;;;;;;;1.59;63.41;99820.08;109392;1244;71572;-84
2023/03/12 02:31:24;;;;;;;4.60;3.10;;;;;;;1.53;63.57;99828.95;109346;1244;71494;-86
2023/03/12 02:33:54;;;;;;;6.20;3.30;;;;;;;1.55;63.35;99831.94;109495;1243;69054;-85
2023/03/12 02:36:23;;;;;;;6.90;3.00;;;;;;;1.58;62.97;99840.05;109424;1244;71925;-85
2023/03/12 02:38:53;;;;;;;5.20;2.90;;;;;;;1.49;63.04;99848.52;109642;1243;58054;-86
2023/03/12 02:41:30;;;;;;;3.80;2.70;;;;;;;1.49;62.78;99849.74;109453;1243;58773;-85
2023/03/12 02:44:11;;;;;;;4.30;2.90;;;;;;;1.52;61.99;99869.48;109481;1247;72219;-86
2023/03/12 02:46:45;;;;;;;5.40;3.00;;;;;;;1.55;61.68;99868.49;109645;1243;70973;-86
2023/03/12 02:49:16;;;;;;;4.70;3.30;;;;;;;1.47;61.68;99882.77;109550;1244;68422;-86
2023/03/12 02:51:46;;;;;;;5.70;3.40;;;;;;;1.54;61.30;99880.92;109516;1244;73307;-83
2023/03/12 02:54:17;;;;;;;5.20;3.30;;;;;;;1.51;61.45;99904.53;109495;1245;59495;-85
2023/03/12 02:56:48;;;;;;;4.10;2.50;;;;;;;1.51;61.27;99903.86;109325;1243;58935;-84
2023/03/12 02:59:20;;;;;;;6.50;3.80;;;;;;;1.38;61.94;99900.23;109407;1244;73499;-84
2023/03/12 03:01:57;;;;;;;5.10;3.40;;;;;;;1.37;61.79;99903.52;109256;1243;72527;-83
2023/03/12 03:04:29;;;;;;;4.70;3.30;;;;;;;1.33;61.64;99911.40;109277;1244;68611;-83
2023/03/12 03:06:58;;;;;;;5.70;3.50;;;;;;;1.32;61.41;99912.49;109167;1243;71882;-83
2023/03/12 03:09:27;;;;;;;4.30;3.00;;;;;;;1.25;61.49;99908.02;109303;1245;60455;-82
2023/03/12 03:11:56;;;;;;;5.30;3.10;;;;;;;1.22;61.80;99923.06;109428;1243;60785;-83
2023/03/12 03:14:25;;;;;;;5.00;3.50;;;;;;;1.21;61.37;99925.36;109061;1243;338366;-83
2023/03/12 03:16:54;;;;;;;7.30;3.10;;;;;;;1.18;61.51;99919.66;109219;1243;70241;-83
2023/03/12 03:19:23;;;;;;;4.80;3.20;;;;;;;1.12;61.81;99922.50;109319;1243;68352;-83
2023/03/12 03:21:52;;;;;;;4.60;3.00;;;;;;;1.15;61.60;99928.39;109283;1243;74482;-84
2023/03/12 03:24:21;;;;;;;5.00;2.80;;;;;;;1.15;61.37;99947.08;109382;1244;60146;-84
2023/03/12 03:26:49;;;;;;;4.80;3.00;;;;;;;1.10;61.60;99945.42;109435;1243;59745;-85
2023/03/12 03:29:18;;;;;;;4.90;3.10;;;;;;;1.04;61.84;99954.78;109334;1244;72217;-83
2023/03/12 03:31:47;;;;;;;6.20;3.30;;;;;;;1.06;61.41;99963.25;109344;1243;72216;-84
2023/03/12 03:34:17;;;;;;;4.30;3.20;;;;;;;1.08;61.39;99965.04;109459;1242;69829;-84
2023/03/12 03:36:46;;;;;;;4.40;3.30;;;;;;;1.04;61.33;99978.77;109310;1244;71883;-84
2023/03/12 03:39:16;;;;;;;5.40;3.20;;;;;;;1.09;60.95;99987.80;109345;1245;60273;-85
2023/03/12 03:41:46;;;;;;;4.60;3.40;;;;;;;1.08;60.92;99990.44;109171;1244;61621;-86
2023/03/12 03:44:16;;;;;;;6.10;4.00;;;;;;;1.02;61.10;100000.46;109352;1243;73003;-86
2023/03/12 03:46:46;;;;;;;4.40;3.10;;;;;;;1.04;61.08;100011.85;109351;1243;72065;-84
2023/03/12 03:49:16;;;;;;;7.00;3.00;;;;;;;1.04;60.65;100018.88;109499;1243;68936;-84
2023/03/12 03:51:45;;;;;;;5.90;3.30;;;;;;;1.06;60.72;100022.59;109180;1242;71166;-83
2023/03/12 03:54:17;;;;;;;4.00;2.80;;;;;;;1.08;60.66;100024.73;109273;1247;59670;-84
2023/03/12 03:56:46;;;;;;;4.20;3.00;;;;;;;1.10;60.72;100019.70;109297;1244;61703;-85
2023/03/12 03:59:15;;;;;;;5.30;3.20;;;;;;;1.03;61.06;100022.39;109329;1245;71289;-84
2023/03/12 04:01:44;;;;;;;5.80;3.10;;;;;;;1.02;61.07;100027.73;109496;1241;70547;-84
2023/03/12 04:04:13;;;;;;;5.70;3.20;;;;;;;0.96;61.64;100041.19;109503;1241;70441;-85
2023/03/12 04:06:42;;;;;;;4.50;2.70;;;;;;;0.89;62.26;100040.82;109592;1241;71493;-84
2023/03/12 04:09:11;;;;;;;4.70;3.20;;;;;;;0.88;62.53;100033.31;109504;1245;58497;-88
2023/03/12 04:11:40;;;;;;;4.40;3.20;;;;;;;0.88;62.90;100050.66;109487;1241;61808;-87
2023/03/12 04:14:10;;;;;;;4.50;3.00;;;;;;;0.81;62.98;100046.64;109647;1245;72175;-86
2023/03/12 04:16:40;;;;;;;3.70;3.00;;;;;;;0.76;63.68;100048.19;109560;1241;71970;-85
2023/03/12 04:19:09;;;;;;;4.80;3.30;;;;;;;0.74;63.79;100060.30;109600;1241;71252;-86
2023/03/12 04:21:38;;;;;;;4.70;3.00;;;;;;;0.72;64.07;100056.29;109477;1241;72370;-82
2023/03/12 04:24:13;;;;;;;4.90;3.30;;;;;;;0.70;64.20;100059.64;109526;1245;58031;-85
2023/03/12 04:26:42;;;;;;;6.20;3.70;;;;;;;0.64;64.55;100075.14;109606;1241;58615;-85
2023/03/12 04:29:11;;;;;;;6.80;3.90;;;;;;;0.65;64.89;100066.88;109491;1241;72971;-87
2023/03/12 04:31:42;;;;;;;4.80;3.50;;;;;;;0.63;64.87;100061.28;109625;1241;72548;-85
2023/03/12 04:34:11;;;;;;;5.80;3.70;;;;;;;0.64;64.93;100064.68;109618;1241;70798;-83
2023/03/12 04:36:42;;;;;;;4.70;3.50;;;;;;;0.64;64.79;100062.79;109497;1241;72219;-86
2023/03/12 04:39:12;;;;;;;5.70;3.40;;;;;;;0.61;64.83;100055.17;109605;1244;58560;-86
2023/03/12 04:41:41;;;;;;;5.70;3.60;;;;;;;0.56;65.09;100060.20;109453;1241;61172;-83
2023/03/12 04:44:15;;;;;;;5.70;3.50;;;;;;;0.53;65.34;100071.47;109621;1241;72349;-83
2023/03/12 04:46:44;;;;;;;5.90;3.40;;;;;;;0.51;65.42;100074.14;109502;1241;71009;-85
2023/03/12 04:49:16;;;;;;;4.90;3.20;;;;;;;0.53;65.09;100083.12;109636;1241;67808;-83
2023/03/12 04:51:45;;;;;;;8.30;3.90;;;;;;;0.52;65.05;100090.68;109633;1241;73034;-85
2023/03/12 04:54:15;;;;;;;6.50;3.70;;;;;;;0.50;65.03;100081.86;109618;1245;60195;-85
2023/03/12 04:56:44;;;;;;;4.00;3.00;;;;;;;0.48;65.04;100094.77;109623;1241;60627;-86
2023/03/12 04:59:13;;;;;;;7.20;3.60;;;;;;;0.51;65.10;100101.70;109494;1241;73586;-87
2023/03/12 05:01:43;;;;;;;5.60;3.00;;;;;;;0.49;65.06;100106.93;109519;1247;69871;-88
2023/03/12 05:04:18;;;;;;;7.60;3.70;;;;;;;0.53;64.82;100118.25;109490;1241;69728;-85
2023/03/12 05:06:48;;;;;;;5.60;3.60;;;;;;;0.54;64.81;100121.64;109492;1241;75337;-85
2023/03/12 05:09:16;;;;;;;4.90;2.80;;;;;;;0.60;64.57;100134.09;109612;1245;62214;-84
2023/03/12 05:11:46;;;;;;;4.50;3.20;;;;;;;0.61;64.56;100149.65;109481;1246;58208;-84
2023/03/12 05:14:16;;;;;;;7.10;3.20;;;;;;;0.66;64.28;100159.20;109623;1241;72787;-86
2023/03/12 05:16:46;;;;;;;7.60;3.40;;;;;;;0.66;64.44;100165.69;109618;1241;72394;-85
2023/03/12 05:19:15;;;;;;;4.80;3.00;;;;;;;0.68;64.31;100175.21;109510;1241;69716;-87
2023/03/12 05:21:44;;;;;;;6.30;3.30;;;;;;;0.72;64.22;100180.70;109675;1241;73407;-86
2023/03/12 05:24:12;;;;;;;6.90;4.40;;;;;;;0.71;63.92;100183.14;109664;1241;60134;-86
2023/03/12 05:26:42;;;;;;;5.50;3.30;;;;;;;0.76;63.73;100190.16;109696;1245;59337;-87
2023/03/12 05:29:18;;;;;;;6.00;3.30;;;;;;;0.83;63.25;100197.45;109396;1248;70824;-83
2023/03/12 05:31:48;;;;;;;5.80;3.80;;;;;;;0.89;62.98;100201.13;109673;1245;70284;-85
2023/03/12 05:34:17;;;;;;;4.30;3.00;;;;;;;0.93;62.71;100212.44;109585;1241;67663;-87
2023/03/12 05:36:47;;;;;;;8.00;3.70;;;;;;;0.99;62.15;100223.18;109494;1241;73904;-82
2023/03/12 05:39:19;;;;;;;7.40;3.70;;;;;;;1.02;62.05;100230.93;109798;1244;58357;-78
2023/03/12 05:41:48;;;;;;;5.50;3.30;;;;;;;1.08;61.85;100245.45;109705;1242;59671;-86
2023/03/12 05:44:19;;;;;;;5.90;3.00;;;;;;;1.12;61.43;100259.68;109677;1241;73632;-83
2023/03/12 05:46:52;;;;;;;4.80;3.10;;;;;;;1.18;61.06;100265.64;109545;1241;72723;-81
2023/03/12 05:49:23;;;;;;;6.60;4.00;;;;;;;1.22;60.80;100276.28;109583;1241;70707;-81
2023/03/12 05:51:53;;;;;;;5.70;3.20;;;;;;;1.27;61.53;100286.19;109640;1241;73557;-76
2023/03/12 05:54:23;;;;;;;5.00;3.20;;;;;;;1.42;60.78;100289.52;109617;1245;58595;-71
2023/03/12 05:56:52;;;;;;;5.70;3.30;;;;;;;1.49;59.84;100305.52;109604;1241;59471;-83
2023/03/12 05:59:21;;;;;;;5.90;3.30;;;;;;;1.56;58.70;100304.73;109746;1245;70627;-78
2023/03/12 06:01:50;;;;;;;8.10;3.20;;;;;;;1.57;58.84;100310.36;109704;1241;70229;-81
2023/03/12 06:04:19;;;;;;;7.60;3.10;;;;;;;1.75;58.12;100324.71;109481;1247;68639;-77
2023/03/12 06:06:48;;;;;;;5.60;2.20;;;;;;;1.79;58.08;100311.68;109559;1242;73785;-79
2023/03/12 06:09:17;;;;;;;7.00;2.90;;;;;;;1.92;56.32;100326.71;109506;1245;60707;-84
2023/03/12 06:11:45;;;;;;;3.60;2.60;;;;;;;1.94;55.64;100332.65;109552;1245;59879;-80
2023/03/12 06:14:14;;;;;;;3.00;1.80;;;;;;;1.98;54.31;100344.17;109700;1245;72400;-83
2023/03/12 06:16:44;;;;;;;4.60;2.30;;;;;;;2.03;54.15;100344.98;109653;1241;70750;-79
2023/03/12 06:19:13;;;;;;;3.50;2.70;;;;;;;1.99;54.09;100355.80;109672;1241;69579;-76
2023/03/12 06:21:44;;;;;;;3.30;1.90;;;;;;;1.99;53.30;100358.88;109557;1242;72884;-82
2023/03/12 06:24:13;;;;;;;4.10;2.30;;;;;;;2.12;53.19;100354.91;109315;1242;59468;-92
2023/03/12 06:26:50;;;;;;;3.00;2.00;;;;;;;2.20;51.94;100366.42;109475;1244;59150;-78
2023/03/12 06:29:19;;;;;;;5.00;2.50;;;;;;;2.21;51.56;100378.42;109698;1244;72630;-79
2023/03/12 06:31:50;;;;;;;4.20;2.10;;;;;;;2.29;51.11;100376.14;109703;1241;71845;-79
2023/03/12 06:34:20;;;;;;;3.60;1.80;;;;;;;2.36;50.30;100376.70;109769;1241;69959;-86
2023/03/12 06:36:48;;;;;;;4.90;2.10;;;;;;;2.41;50.10;100381.82;109698;1241;73251;-78
2023/03/12 06:39:17;;;;;;;3.10;1.80;;;;;;;2.43;49.34;100391.55;109722;1244;58818;-77
2023/03/12 06:41:46;;;;;;;3.80;2.20;;;;;;;2.44;48.23;100383.58;109726;1241;59397;-78
2023/03/12 06:44:15;;;;;;;9.50;5.00;;;;;;;2.53;48.20;100398.52;109789;1241;71722;-73
2023/03/12 06:46:44;;;;;;;3.80;2.10;;;;;;;2.63;48.65;100391.52;109503;1248;69828;-77
2023/03/12 06:49:14;;;;;;;5.90;2.40;;;;;;;2.76;47.50;100400.23;109761;1241;70451;-75
2023/03/12 06:51:43;;;;;;;3.90;2.00;;;;;;;2.78;46.56;100407.54;109430;1248;71729;-77
2023/03/12 06:54:12;;;;;;;7.40;3.60;;;;;;;2.81;46.43;100417.86;109691;1244;57842;-85
2023/03/12 06:56:41;;;;;;;6.50;2.40;;;;;;;2.82;47.10;100408.02;109587;1241;60450;-76
2023/03/12 06:59:10;;;;;;;7.60;3.80;;;;;;;2.92;47.43;100415.65;109615;1241;74527;-83
2023/03/12 07:01:39;;;;;;;4.20;2.20;;;;;;;2.85;47.35;100427.17;109657;1241;71186;-80
2023/03/12 07:04:07;;;;;;;7.10;3.00;;;;;;;2.68;47.50;100437.55;109692;1241;71095;-75
2023/03/12 07:06:36;;;;;;;4.40;2.30;;;;;;;2.71;47.62;100438.27;109594;1245;71588;-80
2023/03/12 07:09:05;;;;;;;4.30;2.50;;;;;;;2.60;47.72;100437.05;109312;1248;58925;-77
2023/03/12 07:11:35;;;;;;;5.00;2.40;;;;;;;2.64;47.88;100438.23;109558;1244;59171;-80
2023/03/12 07:14:04;;;;;;;3.60;2.50;;;;;;;2.88;47.68;100448.17;109424;1241;72565;-78
2023/03/12 07:16:33;;;;;;;2.90;1.90;;;;;;;2.95;46.84;100479.33;109481;1241;72533;-84
2023/03/12 07:19:03;;;;;;;6.80;2.50;;;;;;;2.99;46.83;100467.81;109424;1241;70535;-79
2023/03/12 07:21:32;;;;;;;3.90;2.10;;;;;;;2.87;46.25;100471.11;109588;1245;72330;-80
2023/03/12 07:24:05;;;;;;;4.20;2.20;;;;;;;2.85;45.99;100470.65;109575;1244;58866;-80
2023/03/12 07:26:34;;;;;;;5.80;2.20;;;;;;;2.83;46.17;100477.31;109625;1245;59598;-79
2023/03/12 07:29:04;;;;;;;5.70;1.90;;;;;;;2.72;46.28;100467.48;109482;1247;71535;-78
2023/03/12 07:31:32;;;;;;;8.80;2.40;;;;;;;2.76;46.52;100469.52;109476;1242;72125;-76
2023/03/12 07:34:01;;;;;;;6.90;2.40;;;;;;;3.02;46.37;100474.92;109606;1245;67242;-75
2023/03/12 07:36:32;;;;;;;6.10;2.40;;;;;;;3.02;46.18;100472.33;109547;1241;73874;-79
2023/03/12 07:39:01;;;;;;;5.60;2.40;;;;;;;3.12;45.83;100470.32;109359;1247;60925;-81
2023/03/12 07:41:30;;;;;;;6.10;2.00;;;;;;;2.97;46.04;100482.02;109469;1241;60783;-84
2023/03/12 07:43:59;;;;;;;3.70;2.20;;;;;;;2.85;46.08;100503.48;109505;1241;72765;-78
2023/03/12 07:46:28;;;;;;;4.50;2.20;;;;;;;2.82;46.13;100493.14;109603;1241;70697;-76
2023/03/12 07:48:57;;;;;;;5.00;2.70;;;;;;;2.75;46.26;100508.77;109708;1244;68617;-82
2023/03/12 07:51:26;;;;;;;2.50;1.70;;;;;;;2.58;46.48;100519.98;109528;1241;72991;-86
2023/03/12 07:53:55;;;;;;;3.70;2.20;;;;;;;2.58;46.49;100519.11;109468;1247;58788;-78
2023/03/12 07:56:24;;;;;;;3.90;2.30;;;;;;;2.73;46.91;100521.22;109465;1241;60188;-77
2023/03/12 07:58:53;;;;;;;4.90;2.60;;;;;;;2.98;46.41;100520.16;109578;1245;71569;-75
2023/03/12 08:01:24;;;;;;;3.80;2.40;;;;;;;3.05;46.69;100521.59;109612;1241;71506;-76
2023/03/12 08:03:53;;;;;;;3.80;2.00;;;;;;;2.94;47.53;100527.38;109506;1241;70134;-72
2023/03/12 08:06:21;;;;;;;5.20;2.40;;;;;;;3.02;47.82;100516.04;109556;1242;74167;-75
2023/03/12 08:08:50;;;;;;;5.90;2.60;;;;;;;2.94;48.27;100526.52;109337;1247;59170;-77
2023/03/12 08:11:20;;;;;;;6.30;2.50;;;;;;;2.72;49.17;100532.45;109629;1244;61196;-82
2023/03/12 08:13:49;;;;;;;4.60;2.40;;;;;;;2.66;49.51;100534.11;109523;1241;74106;-77
2023/03/12 08:16:18;;;;;;;5.70;2.60;;;;;;;2.72;49.28;100542.45;109607;1241;71286;-76
2023/03/12 08:18:47;;;;;;;4.40;2.50;;;;;;;2.69;48.73;100539.13;109621;1241;67884;-75
2023/03/12 08:21:16;;;;;;;5.30;2.40;;;;;;;2.80;48.34;100545.73;109507;1241;74381;-81
2023/03/12 08:23:45;;;;;;;4.70;2.90;;;;;;;2.91;48.39;100549.38;109648;1241;60245;-78
2023/03/12 08:26:14;;;;;;;4.10;2.60;;;;;;;2.88;48.81;100548.48;109664;1241;59260;-77
2023/03/12 08:28:43;;;;;;;6.00;2.80;;;;;;;3.11;48.45;100559.16;109615;1241;72751;-79
2023/03/12 08:31:15;;;;;;;4.20;2.90;;;;;;;3.14;47.80;100572.60;109526;1241;72614;-78
2023/03/12 08:33:45;;;;;;;7.50;3.80;;;;;;;3.10;48.41;100566.06;109497;1241;70783;-79
2023/03/12 08:36:14;;;;;;;5.60;2.30;;;;;;;3.08;48.15;100566.37;109538;1244;72208;-80
2023/03/12 08:38:43;;;;;;;7.20;2.90;;;;;;;3.06;47.52;100568.66;109471;1245;58051;-79
2023/03/12 08:41:12;;;;;;;4.50;2.70;;;;;;;3.07;47.76;100584.80;109537;1241;60323;-78
2023/03/12 08:43:41;;;;;;;4.60;2.60;;;;;;;3.07;48.06;100574.82;109472;1241;73906;-80
2023/03/12 08:46:10;;;;;;;3.90;2.20;;;;;;;3.30;48.49;100569.88;109543;1241;72512;-78
2023/03/12 08:48:40;;;;;;;6.50;3.10;;;;;;;3.51;48.26;100577.36;109558;1241;70001;-79
2023/03/12 08:51:08;;;;;;;6.40;3.30;;;;;;;3.55;47.83;100574.43;109650;1243;74144;-80
2023/03/12 08:53:38;;;;;;;7.50;2.90;;;;;;;3.63;47.78;100585.25;109553;1243;60771;-85
2023/03/12 08:56:07;;;;;;;5.10;2.50;;;;;;;3.82;47.02;100590.05;109370;1242;60404;-85
2023/03/12 08:58:36;;;;;;;5.40;2.80;;;;;;;4.03;46.14;100602.35;109337;1248;73373;-82
2023/03/12 09:01:10;;;;;;;5.60;3.20;;;;;;;4.09;45.95;100594.98;109513;1241;72576;-81
2023/03/12 09:03:42;;;;;;;6.50;2.80;;;;;;;3.91;46.21;100601.34;109406;1241;61588;-81
2023/03/12 09:06:15;;;;;;;8.30;2.80;;;;;;;3.83;45.33;100599.83;109428;1241;71095;-83
2023/03/12 09:08:45;;;;;;;;;;;;;;;3.72;44.35;100607.21;109560;1241;60271;-79
2023/03/12 09:11:14;;;;;;;7.30;2.60;;;;;;;3.68;44.02;100614.81;109449;1241;61678;-76
2023/03/12 09:13:43;;;;;;;4.60;2.60;;;;;;;3.72;44.38;100595.14;109711;1242;72017;-90
2023/03/12 09:16:33;;;;;;;3.90;2.60;;;;;;;3.78;44.72;100608.17;109534;1241;71401;-83
2023/03/12 09:19:02;;;;;;;3.50;2.10;;;;;;;3.83;43.79;100615.31;109800;1241;60294;-84
2023/03/12 09:21:31;;;;;;;4.00;2.30;;;;;;;3.91;43.05;100611.87;109528;1241;71310;-77
2023/03/12 09:24:00;;;;;;;4.20;2.20;;;;;;;4.03;42.85;100616.46;109650;1241;59604;-77
2023/03/12 09:26:29;;;;;;;5.70;2.60;;;;;;;4.14;42.32;100618.73;109766;1244;61635;-79
2023/03/12 09:28:58;;;;;;;4.70;2.40;;;;;;;4.05;41.51;100639.45;109715;1241;74123;-80
2023/03/12 09:31:27;;;;;;;4.50;1.90;;;;;;;4.11;41.64;100639.02;109546;1241;72745;-78
2023/03/12 09:33:56;;;;;;;4.70;2.10;;;;;;;4.20;41.91;100635.00;109678;1241;68901;-76
2023/03/12 09:36:25;;;;;;;6.50;2.30;;;;;;;4.29;42.00;100634.74;109640;1241;73829;-77
2023/03/12 09:38:54;;;;;;;3.10;2.20;;;;;;;4.50;41.97;100634.20;109802;1245;59970;-78
2023/03/12 09:41:30;;;;;;;4.30;2.20;;;;;;;4.47;41.42;100630.91;109808;1241;61451;-77
2023/03/12 09:44:18;;;;;;;4.90;2.10;;;;;;;4.39;40.74;100646.31;109656;1245;62719;-82
2023/03/12 09:46:57;;;;;;;3.80;2.00;;;;;;;4.44;40.43;100646.27;109417;1247;71988;-77
2023/03/12 09:49:44;;;;;;;4.20;1.80;;;;;;;4.35;40.92;100650.32;109552;1241;68991;-75
2023/03/12 09:52:40;;;;;;;5.00;2.50;;;;;;;4.47;41.35;100651.42;109707;1242;74422;-88
2023/03/12 09:55:22;;;;;;;4.50;2.30;;;;;;;4.70;42.11;100659.32;109591;1242;57707;-77
2023/03/12 09:57:51;;;;;;;5.80;2.40;;;;;;;4.87;40.69;100664.16;109642;1241;60484;-85
2023/03/12 10:00:31;;;;;;;3.30;2.40;;;;;;;4.81;40.71;100664.31;109666;1241;74004;-84
2023/03/12 10:04:03;;;;;;;7.30;2.70;;;;;;;4.84;40.70;100653.76;109523;1241;71698;-87
2023/03/12 10:06:42;;;;;;;4.10;2.50;;;;;;;4.90;39.97;100663.15;108792;1251;70351;-75
2023/03/12 10:09:35;;;;;;;3.50;2.10;;;;;;;5.00;40.61;100666.30;109104;1251;74489;-85
2023/03/12 10:12:40;;;;;;;7.00;2.50;;;;;;;5.14;40.45;100659.73;109845;1241;57899;-86
2023/03/12 10:15:33;;;;;;;4.00;2.20;;;;;;;5.30;39.68;100676.70;109854;1241;57399;-86
2023/03/12 10:18:24;;;;;;;4.50;2.80;;;;;;;5.31;39.47;100657.67;109465;1248;72781;-81
2023/03/12 10:21:17;;;;;;;5.80;2.10;;;;;;;5.25;39.27;100668.12;109712;1241;72484;-80
2023/03/12 10:24:35;;;;;;;4.70;2.40;;;;;;;5.24;39.19;100662.67;109686;1241;70273;-86
2023/03/12 10:27:15;;;;;;;4.10;2.20;;;;;;;5.29;39.00;100661.20;109597;1244;74257;-83
2023/03/12 10:29:49;;;;;;;4.00;2.30;;;;;;;5.37;38.73;100672.55;109336;1248;57861;-89
2023/03/12 10:32:42;;;;;;;3.60;2.10;;;;;;;5.35;38.29;100657.11;109543;1244;60289;-86
2023/03/12 10:35:18;;;;;;;5.80;2.10;;;;;;;5.38;38.14;100650.55;109554;1241;62766;-86
2023/03/12 10:38:03;;;;;;;4.70;2.30;;;;;;;5.68;38.24;100644.64;109760;1241;70224;-82
2023/03/12 10:40:35;;;;;;;3.10;1.90;;;;;;;6.07;37.11;100641.20;109776;1241;67858;-80
2023/03/12 10:43:05;;;;;;;4.10;2.20;;;;;;;6.12;37.11;100648.87;109545;1241;71078;-81
2023/03/12 10:46:05;;;;;;;4.40;2.70;;;;;;;6.10;37.42;100649.51;109479;1243;59627;-86
2023/03/12 10:48:33;;;;;;;4.60;2.30;;;;;;;6.47;37.21;100642.27;109483;1241;61220;-79
2023/03/12 10:51:12;;;;;;;4.00;2.00;;;;;;;6.73;37.59;100651.02;109610;1241;73956;-89
2023/03/12 10:53:46;;;;;;;4.70;2.60;;;;;;;7.02;37.11;100639.27;109629;1241;71406;-81
2023/03/12 10:56:19;;;;;;;4.20;2.30;;;;;;;7.25;36.74;100641.20;109590;1241;70523;-78
2023/03/12 10:58:52;;;;;;;4.10;2.00;;;;;;;7.05;37.04;100635.62;109364;1241;74224;-84
2023/03/12 11:01:30;;;;;;;3.30;2.20;;;;;;;7.36;35.64;100649.40;109557;1245;59128;-83
2023/03/12 11:04:23;;;;;;;3.40;2.00;;;;;;;7.30;35.15;100634.47;109321;1244;61240;-79
2023/03/12 11:07:20;;;;;;;4.30;2.30;;;;;;;7.06;34.95;100639.55;109312;1244;63503;-78
2023/03/12 11:10:19;;;;;;;3.90;2.30;;;;;;;7.36;35.31;100640.70;109483;1243;72129;-80
2023/03/12 11:13:04;;;;;;;4.20;2.50;;;;;;;7.41;35.15;100635.42;109434;1241;59424;-77
2023/03/12 11:15:41;;;;;;;4.70;2.70;;;;;;;7.45;34.98;100631.89;109289;1241;71855;-76
2023/03/12 11:18:32;;;;;;;3.10;2.10;;;;;;;7.72;34.35;100641.48;109241;1248;58964;-79
2023/03/12 11:21:08;;;;;;;4.90;2.50;;;;;;;7.95;33.80;100637.81;109376;1246;57187;-79
2023/03/12 11:23:42;;;;;;;4.10;2.20;;;;;;;7.99;33.25;100640.71;109659;1241;71570;-78
2023/03/12 11:26:21;;;;;;;4.40;2.10;;;;;;;7.87;33.83;100640.38;109364;1241;69463;-78
2023/03/12 11:29:03;;;;;;;3.50;2.30;;;;;;;7.97;33.89;100632.45;109531;1241;70535;-79
2023/03/12 11:31:43;;;;;;;3.30;2.00;;;;;;;8.16;33.37;100641.50;109344;1241;72479;-82
2023/03/12 11:34:30;;;;;;;3.30;1.90;;;;;;;8.10;32.50;100639.64;109310;1241;59929;-83
2023/03/12 11:37:20;;;;;;;3.30;2.10;;;;;;;8.30;32.27;100648.77;109687;1245;60609;-83
2023/03/12 11:40:08;;;;;;;3.90;2.30;;;;;;;8.55;32.32;100638.87;109620;1241;72250;-75
2023/03/12 11:43:12;;;;;;;3.60;2.30;;;;;;;8.63;32.58;100647.55;109679;1241;70243;-85
2023/03/12 11:45:59;;;;;;;4.40;2.40;;;;;;;8.61;32.50;100637.77;109658;1241;69835;-79
2023/03/12 11:48:46;;;;;;;4.10;2.20;;;;;;;8.94;31.78;100649.85;109641;1242;72402;-77
2023/03/12 11:51:44;;;;;;;4.80;2.00;;;;;;;9.15;31.43;100646.86;109467;1245;57167;-70
2023/03/12 11:54:19;;;;;;;3.50;2.00;;;;;;;9.41;30.43;100659.89;109384;1241;61021;-84
2023/03/12 11:57:11;;;;;;;4.30;2.10;;;;;;;9.43;29.39;100657.14;109466;1241;74340;-79